Time;durP1;ratioP1;P1;durP2;ratioP2;P2;SDS_P1;SDS_P2;PMS_P1;PMS_P2;Temp;Humidity;BMP_temperature;BMP_pressure;BME280_temperature;BME280_humidity;BME280_pressure;Samples;Min_cycle;Max_cycle;Signal;HPM_P1;HPM_P2
2023/10/16 00:01:19;;;;;;;4.15;0.50;;;9.30;99.90;;;;;;4931284;28;20124;-85
2023/10/16 00:03:48;;;;;;;2.45;0.32;;;9.20;99.60;;;;;;4970231;28;20542;-86
2023/10/16 00:06:16;;;;;;;2.85;0.82;;;9.30;99.90;;;;;;4940834;28;20050;-85
2023/10/16 00:08:47;;;;;;;2.90;0.60;;;9.30;99.70;;;;;;4954584;28;20050;-85
2023/10/16 00:11:18;;;;;;;2.20;0.65;;;9.20;99.50;;;;;;4934930;28;20061;-86
2023/10/16 00:13:50;;;;;;;1.80;0.47;;;9.10;99.60;;;;;;4925555;28;20184;-87
2023/10/16 00:16:19;;;;;;;3.10;0.50;;;9.10;99.90;;;;;;4953594;28;20053;-86
2023/10/16 00:18:47;;;;;;;2.20;0.93;;;9.10;99.50;;;;;;4949197;28;20054;-87
2023/10/16 00:21:14;;;;;;;3.95;0.70;;;9.00;99.60;;;;;;4975568;28;20104;-90
2023/10/16 00:23:42;;;;;;;2.40;0.50;;;9.00;99.60;;;;;;4972505;28;20094;-86
2023/10/16 00:26:19;;;;;;;3.53;0.95;;;9.00;99.50;;;;;;4941609;28;20089;-90
2023/10/16 00:29:55;;;;;;;2.45;0.70;;;8.90;99.40;;;;;;4946631;28;20167;-89
2023/10/16 00:31:51;;;;;;;2.85;0.70;;;8.90;99.60;;;;;;4961138;28;20641;-87
2023/10/16 00:34:20;;;;;;;1.92;0.57;;;8.90;99.60;;;;;;4928079;28;20090;-86
2023/10/16 00:36:49;;;;;;;4.70;1.13;;;9.00;99.80;;;;;;4971202;28;20058;-85
2023/10/16 00:39:19;;;;;;;2.35;0.47;;;8.80;99.60;;;;;;4945326;28;20780;-87
2023/10/16 00:41:49;;;;;;;1.58;0.52;;;8.90;99.80;;;;;;4930230;28;20217;-83
2023/10/16 00:44:17;;;;;;;3.30;0.50;;;8.90;99.60;;;;;;4955953;28;20038;-86
2023/10/16 00:46:48;;;;;;;2.97;0.68;;;8.80;99.70;;;;;;4933549;28;20054;-88
2023/10/16 00:49:20;;;;;;;3.50;0.80;;;8.80;99.80;;;;;;4971739;28;20046;-86
2023/10/16 00:51:49;;;;;;;2.72;0.60;;;8.70;99.80;;;;;;4939829;28;20308;-86
2023/10/16 00:54:28;;;;;;;2.90;0.50;;;8.80;99.70;;;;;;4953960;28;20061;-86
2023/10/16 00:56:59;;;;;;;2.63;0.30;;;8.80;99.60;;;;;;4955402;28;20057;-87
2023/10/16 00:59:28;;;;;;;1.63;0.38;;;8.80;99.50;;;;;;4955473;28;20108;-85
2023/10/16 01:02:15;;;;;;;2.20;0.38;;;8.80;99.50;;;;;;4951699;28;20078;-84
2023/10/16 01:04:43;;;;;;;1.90;0.60;;;8.80;99.70;;;;;;4944234;28;20401;-85
2023/10/16 01:07:15;;;;;;;3.38;0.40;;;8.70;99.20;;;;;;4926802;28;20077;-89
2023/10/16 01:09:46;;;;;;;2.05;0.40;;;8.70;99.20;;;;;;4960593;28;21074;-87
2023/10/16 01:12:16;;;;;;;2.78;0.60;;;8.70;99.00;;;;;;4926870;28;20063;-91
2023/10/16 01:14:44;;;;;;;2.17;0.50;;;8.70;98.80;;;;;;4947055;28;20264;-85
2023/10/16 01:17:12;;;;;;;3.15;0.98;;;8.70;98.80;;;;;;4970465;28;20525;-87
2023/10/16 01:19:43;;;;;;;2.35;0.63;;;8.60;98.60;;;;;;4971194;28;20058;-89
2023/10/16 01:22:11;;;;;;;2.92;0.50;;;8.60;98.80;;;;;;4960008;28;22570;-84
2023/10/16 01:24:43;;;;;;;1.95;0.50;;;8.60;98.90;;;;;;4965886;28;20136;-87
2023/10/16 01:27:26;;;;;;;0.90;0.57;;;8.60;99.10;;;;;;4957734;28;20063;-87
2023/10/16 01:29:59;;;;;;;3.33;0.50;;;8.60;99.20;;;;;;4947922;28;20109;-85
2023/10/16 01:32:28;;;;;;;2.80;0.55;;;8.60;99.30;;;;;;4962049;28;20101;-85
2023/10/16 01:34:56;;;;;;;4.00;0.55;;;8.50;99.40;;;;;;4965737;28;20047;-84
2023/10/16 01:37:25;;;;;;;0.90;0.43;;;8.50;99.50;;;;;;4953859;28;20046;-86
2023/10/16 01:40:13;;;;;;;;;;;8.50;99.50;;;;;;4945000;28;20192;-84
2023/10/16 01:42:40;;;;;;;3.70;0.50;;;8.50;99.80;;;;;;4923390;28;19935;-81
2023/10/16 01:45:08;;;;;;;2.75;0.80;;;8.50;99.90;;;;;;4915037;28;20050;-84
2023/10/16 01:47:36;;;;;;;2.90;0.60;;;8.40;99.90;;;;;;4957963;28;20046;-86
2023/10/16 01:50:05;;;;;;;1.92;0.50;;;8.50;99.90;;;;;;4925874;28;20077;-85
2023/10/16 01:52:34;;;;;;;2.78;0.63;;;8.50;99.90;;;;;;4943396;28;20069;-84
2023/10/16 01:55:09;;;;;;;1.92;0.95;;;8.40;99.90;;;;;;4960637;28;20105;-85
2023/10/16 01:57:38;;;;;;;1.10;0.32;;;8.40;99.90;;;;;;4975065;28;20061;-84
2023/10/16 02:00:16;;;;;;;2.63;0.70;;;8.30;99.90;;;;;;4953195;28;20054;-84
2023/10/16 02:02:45;;;;;;;5.97;0.70;;;8.30;99.90;;;;;;4931299;28;20055;-84
2023/10/16 02:05:14;;;;;;;3.13;0.70;;;8.30;99.90;;;;;;4933238;28;20069;-85
2023/10/16 02:07:45;;;;;;;2.95;0.57;;;8.40;99.90;;;;;;4940120;28;20054;-83
2023/10/16 02:10:12;;;;;;;5.97;0.88;;;8.30;99.90;;;;;;4954369;28;20046;-84
2023/10/16 02:12:40;;;;;;;3.28;0.52;;;8.40;99.90;;;;;;4942192;28;20054;-83
2023/10/16 02:15:08;;;;;;;2.42;0.45;;;8.40;99.90;;;;;;4955469;28;20153;-84
2023/10/16 02:17:42;;;;;;;2.33;0.38;;;8.60;99.90;;;;;;4925336;28;20054;-83
2023/10/16 02:20:11;;;;;;;1.40;0.30;;;8.60;99.40;;;;;;4969887;28;20059;-85
2023/10/16 02:22:42;;;;;;;0.93;0.50;;;8.50;99.30;;;;;;4925411;28;20054;-83
2023/10/16 02:25:11;;;;;;;1.30;0.30;;;8.60;99.40;;;;;;4956229;28;20200;-84
2023/10/16 02:27:41;;;;;;;1.13;0.40;;;8.50;99.50;;;;;;4951568;28;20055;-85
2023/10/16 02:30:28;;;;;;;1.13;0.40;;;8.40;99.00;;;;;;4964746;28;20547;-85
2023/10/16 02:33:10;;;;;;;1.00;0.30;;;8.40;99.10;;;;;;4955529;28;20051;-86
2023/10/16 02:35:37;;;;;;;1.80;0.30;;;8.60;99.30;;;;;;4973164;28;20050;-87
2023/10/16 02:38:05;;;;;;;2.08;0.30;;;8.50;99.20;;;;;;4926159;28;20144;-85
2023/10/16 02:40:35;;;;;;;2.10;0.45;;;8.30;98.90;;;;;;4949831;28;20731;-84
2023/10/16 02:43:04;;;;;;;2.95;0.60;;;8.40;98.90;;;;;;4939600;28;20054;-86
2023/10/16 02:45:33;;;;;;;1.52;0.60;;;8.20;98.70;;;;;;4926928;28;20054;-84
2023/10/16 02:48:03;;;;;;;2.75;0.50;;;8.20;98.90;;;;;;4923853;28;20046;-83
2023/10/16 02:50:30;;;;;;;1.00;0.25;;;8.10;99.10;;;;;;4946060;28;20060;-83
2023/10/16 02:53:06;;;;;;;1.50;0.40;;;8.20;99.10;;;;;;4941169;28;20058;-83
2023/10/16 02:55:40;;;;;;;1.60;0.38;;;8.20;99.10;;;;;;4935209;28;20280;-82
2023/10/16 02:58:11;;;;;;;2.03;1.00;;;8.20;99.30;;;;;;4942448;28;20063;-83
2023/10/16 03:00:43;;;;;;;2.75;0.30;;;8.20;99.00;;;;;;4938653;28;20050;-82
2023/10/16 03:03:11;;;;;;;5.65;0.80;;;8.30;99.10;;;;;;4938991;28;20448;-83
2023/10/16 03:05:39;;;;;;;0.65;0.30;;;8.20;99.00;;;;;;4930505;28;20098;-83
2023/10/16 03:08:08;;;;;;;2.53;0.30;;;8.30;99.20;;;;;;4925764;28;20058;-83
2023/10/16 03:10:36;;;;;;;1.42;0.60;;;8.30;99.10;;;;;;4973145;28;20071;-82
2023/10/16 03:13:08;;;;;;;1.10;0.63;;;8.20;98.80;;;;;;4950369;28;20132;-83
2023/10/16 03:15:47;;;;;;;3.58;0.30;;;8.20;99.10;;;;;;4957890;28;20054;-81
2023/10/16 03:18:18;;;;;;;3.17;0.40;;;8.20;99.00;;;;;;4951511;28;21086;-83
2023/10/16 03:20:47;;;;;;;0.85;0.30;;;8.20;99.30;;;;;;4966107;28;20148;-82
2023/10/16 03:23:14;;;;;;;2.38;0.50;;;8.30;99.40;;;;;;4924974;28;20227;-82
2023/10/16 03:28:11;;;;;;;2.00;0.55;;;8.20;99.30;;;;;;4967822;28;20085;-81
2023/10/16 03:30:42;;;;;;;2.35;0.68;;;8.10;99.40;;;;;;4940995;28;20058;-81
2023/10/16 03:33:14;;;;;;;1.58;0.43;;;8.10;99.60;;;;;;4939592;28;20058;-82
2023/10/16 03:35:53;;;;;;;1.77;0.30;;;8.20;99.70;;;;;;4945740;28;20580;-84
2023/10/16 03:38:24;;;;;;;1.40;0.43;;;8.10;99.60;;;;;;4931002;28;20056;-82
2023/10/16 03:40:58;;;;;;;1.58;0.63;;;8.20;99.60;;;;;;4950814;28;21053;-84
2023/10/16 03:43:28;;;;;;;3.90;0.85;;;8.10;99.40;;;;;;4939459;28;20051;-82
2023/10/16 03:45:55;;;;;;;2.13;0.40;;;8.10;99.50;;;;;;4925594;28;20093;-81
2023/10/16 03:48:22;;;;;;;1.65;0.65;;;7.90;99.60;;;;;;4944189;28;20111;-83
2023/10/16 03:50:56;;;;;;;1.33;0.30;;;7.90;99.80;;;;;;4946577;28;20069;-82
2023/10/16 03:53:24;;;;;;;1.58;0.45;;;7.80;99.90;;;;;;4927683;28;20050;-82
2023/10/16 03:55:53;;;;;;;2.70;0.50;;;7.80;99.90;;;;;;4975256;28;20621;-83
2023/10/16 04:02:19;;;;;;;4.10;0.68;;;7.90;99.70;;;;;;4990066;28;20076;-82
2023/10/16 04:04:49;;;;;;;3.17;0.40;;;8.00;99.70;;;;;;4933101;28;20055;-75
2023/10/16 04:07:16;;;;;;;2.33;0.80;;;8.80;99.90;;;;;;4942096;28;20483;-76
2023/10/16 04:09:49;;;;;;;2.22;0.60;;;8.10;99.90;;;;;;4930819;28;20042;-76
2023/10/16 04:12:20;;;;;;;2.55;0.52;;;8.10;99.90;;;;;;4977192;28;20236;-75
2023/10/16 04:14:55;;;;;;;3.10;0.50;;;8.00;99.90;;;;;;4961709;28;20192;-75
2023/10/16 04:17:26;;;;;;;2.15;1.00;;;7.90;99.70;;;;;;4951036;28;20768;-76
2023/10/16 04:19:59;;;;;;;3.42;0.70;;;8.10;99.90;;;;;;4940497;28;20209;-75
2023/10/16 04:22:42;;;;;;;1.42;0.45;;;7.90;99.90;;;;;;4960039;28;20088;-76
2023/10/16 04:25:19;;;;;;;;;;;7.80;99.90;;;;;;4967552;28;20137;-76
2023/10/16 04:27:54;;;;;;;2.75;0.40;;;7.70;99.90;;;;;;4936042;28;19929;-79
2023/10/16 04:33:13;;;;;;;4.75;0.45;;;7.60;99.90;;;;;;4958158;28;20415;-78
2023/10/16 04:38:30;;;;;;;4.53;0.60;;;8.20;99.90;;;;;;4940305;28;20138;-78
2023/10/16 04:44:22;;;;;;;1.80;0.43;;;7.60;99.90;;;;;;4948338;28;20394;-78
2023/10/16 04:46:57;;;;;;;2.17;0.50;;;7.80;99.90;;;;;;4950463;28;20053;-78
2023/10/16 04:49:28;;;;;;;1.25;0.50;;;6.80;99.90;;;;;;4968583;28;20721;-78
2023/10/16 04:52:06;;;;;;;3.42;0.52;;;7.50;99.90;;;;;;4960282;28;20154;-78
2023/10/16 05:00:12;;;;;;;2.85;0.57;;;7.30;99.90;;;;;;4957877;28;20482;-78
2023/10/16 05:02:52;;;;;;;4.13;0.40;;;7.30;99.90;;;;;;4930339;28;20174;-78
2023/10/16 05:05:32;;;;;;;1.45;0.57;;;7.40;99.90;;;;;;4927764;28;20054;-78
2023/10/16 05:16:32;;;;;;;2.10;0.70;;;7.60;99.90;;;;;;4931977;28;20046;-76
2023/10/16 06:14:34;;;;;;;3.75;1.20;;;8.00;99.90;;;;;;4960040;28;20818;-76
2023/10/16 06:17:13;;;;;;;3.35;1.23;;;8.10;99.90;;;;;;4942279;28;20090;-76
2023/10/16 06:19:42;;;;;;;3.97;1.40;;;8.10;99.90;;;;;;4955804;28;20988;-76
2023/10/16 06:22:10;;;;;;;2.25;0.98;;;8.10;99.90;;;;;;4977711;28;20141;-77
2023/10/16 06:24:44;;;;;;;2.67;1.10;;;8.10;99.90;;;;;;4960056;28;20474;-76
2023/10/16 06:27:19;;;;;;;3.15;1.17;;;8.20;99.90;;;;;;4940755;28;22987;-76
2023/10/16 06:29:51;;;;;;;2.28;0.98;;;8.10;99.90;;;;;;4945165;28;20076;-77
2023/10/16 06:32:21;;;;;;;2.97;1.17;;;8.20;99.90;;;;;;4939099;28;20458;-77
2023/10/16 06:34:57;;;;;;;5.05;1.10;;;8.20;99.90;;;;;;4941976;28;20061;-77
2023/10/16 06:37:24;;;;;;;2.78;1.00;;;8.20;99.90;;;;;;4933060;28;20129;-77
2023/10/16 06:39:58;;;;;;;2.22;0.90;;;8.30;99.90;;;;;;4946022;28;20754;-77
2023/10/16 06:42:30;;;;;;;3.97;1.13;;;8.30;99.90;;;;;;4941395;28;20074;-77
2023/10/16 06:45:07;;;;;;;3.92;1.35;;;8.40;99.90;;;;;;4943835;28;20050;-78
2023/10/16 06:47:35;;;;;;;2.78;1.05;;;8.30;99.90;;;;;;4955828;28;20442;-75
2023/10/16 06:50:32;;;;;;;4.18;1.00;;;8.40;99.90;;;;;;4931252;28;20149;-76
2023/10/16 06:52:54;;;;;;;2.28;0.90;;;8.30;99.90;;;;;;4960232;28;20127;-77
2023/10/16 06:55:22;;;;;;;4.75;1.40;;;8.40;99.90;;;;;;4921329;28;21011;-77
2023/10/16 06:57:49;;;;;;;2.92;1.23;;;8.60;99.80;;;;;;4935025;28;20525;-77
2023/10/16 07:00:27;;;;;;;2.53;1.35;;;8.70;99.40;;;;;;4940138;28;20050;-77
2023/10/16 07:02:56;;;;;;;6.43;1.67;;;8.60;98.40;;;;;;4932463;28;20058;-77
2023/10/16 07:05:44;;;;;;;3.45;0.95;;;8.60;98.20;;;;;;4916671;28;20200;-77
2023/10/16 07:08:17;;;;;;;3.47;1.10;;;8.60;98.20;;;;;;4942378;28;20413;-77
2023/10/16 07:10:49;;;;;;;2.58;0.65;;;8.80;98.10;;;;;;4947815;28;20046;-78
2023/10/16 07:13:27;;;;;;;3.00;0.70;;;8.70;97.00;;;;;;4949783;28;20042;-77
2023/10/16 07:16:03;;;;;;;1.48;0.68;;;8.90;97.30;;;;;;4941590;28;20049;-77
2023/10/16 07:18:33;;;;;;;2.58;0.77;;;8.90;96.50;;;;;;4962968;28;20054;-77
2023/10/16 07:23:34;;;;;;;2.90;0.70;;;9.20;96.10;;;;;;4956261;28;20111;-77
2023/10/16 07:26:12;;;;;;;;;;;9.30;95.90;;;;;;4930614;28;20051;-77
2023/10/16 07:28:40;;;;;;;1.52;0.50;;;9.40;95.20;;;;;;4944121;28;19952;-78
2023/10/16 07:31:10;;;;;;;1.65;0.77;;;9.40;95.00;;;;;;4929321;28;20093;-76
2023/10/16 07:33:39;;;;;;;2.50;0.93;;;9.30;94.80;;;;;;4960010;28;20058;-78
2023/10/16 07:36:11;;;;;;;2.13;0.80;;;9.40;94.80;;;;;;4949915;28;20184;-77
2023/10/16 07:38:39;;;;;;;0.80;0.47;;;9.50;94.90;;;;;;4944999;28;20510;-77
2023/10/16 07:41:13;;;;;;;4.10;0.73;;;9.60;94.20;;;;;;4938935;28;20046;-76
2023/10/16 07:43:45;;;;;;;4.25;0.90;;;9.50;93.90;;;;;;4932774;28;20054;-77
2023/10/16 07:48:52;;;;;;;1.95;0.98;;;9.60;93.00;;;;;;4944753;28;20570;-76
2023/10/16 07:51:21;;;;;;;2.10;0.40;;;9.60;92.60;;;;;;4946683;28;20605;-76
2023/10/16 07:53:50;;;;;;;1.17;0.32;;;9.60;92.50;;;;;;4936023;28;20062;-76
2023/10/16 07:59:18;;;;;;;1.50;0.40;;;9.60;92.20;;;;;;4956534;28;20722;-77
2023/10/16 08:01:52;;;;;;;1.45;0.43;;;9.80;92.60;;;;;;4940732;28;20077;-77
2023/10/16 08:06:53;;;;;;;3.10;0.57;;;9.80;91.90;;;;;;4937964;28;20084;-80
2023/10/16 08:11:57;;;;;;;1.48;0.40;;;10.10;93.00;;;;;;4955974;28;20121;-79
2023/10/16 08:14:26;;;;;;;1.98;0.60;;;10.10;92.10;;;;;;4937930;28;20081;-77
2023/10/16 08:17:14;;;;;;;2.95;0.50;;;10.30;93.00;;;;;;4948776;28;20054;-77
2023/10/16 08:19:43;;;;;;;4.20;0.70;;;10.30;92.90;;;;;;4950588;28;20375;-77
2023/10/16 08:22:13;;;;;;;2.45;0.68;;;10.40;92.80;;;;;;4953826;28;20039;-77
2023/10/16 08:24:57;;;;;;;3.65;0.50;;;10.40;92.90;;;;;;4935954;28;20050;-77
2023/10/16 08:33:07;;;;;;;2.38;0.43;;;10.20;91.40;;;;;;4932016;28;20108;-80
2023/10/16 08:35:38;;;;;;;1.88;0.60;;;10.30;91.30;;;;;;4924338;28;20047;-80
2023/10/16 08:38:51;;;;;;;2.60;0.50;;;10.40;91.50;;;;;;4946056;28;20490;-78
2023/10/16 08:41:07;;;;;;;3.90;0.50;;;10.40;90.40;;;;;;4939803;28;20046;-79
2023/10/16 08:43:57;;;;;;;2.50;0.37;;;10.30;90.00;;;;;;4937795;28;20046;-77
2023/10/16 08:46:31;;;;;;;3.83;1.00;;;10.30;89.50;;;;;;4938822;28;20073;-80
2023/10/16 08:49:01;;;;;;;2.28;0.40;;;10.40;90.10;;;;;;4957737;28;20050;-79
2023/10/16 08:51:29;;;;;;;2.67;0.40;;;10.50;90.10;;;;;;4961530;28;20113;-78
2023/10/16 08:54:02;;;;;;;1.65;0.40;;;10.30;89.30;;;;;;4952196;28;20046;-79
2023/10/16 08:56:30;;;;;;;1.67;0.30;;;10.40;89.80;;;;;;4952328;28;20237;-80
2023/10/16 08:59:01;;;;;;;2.47;0.43;;;10.50;89.60;;;;;;4942620;28;20378;-77
2023/10/16 09:01:32;;;;;;;4.03;0.40;;;10.60;89.80;;;;;;4942373;28;20129;-77
2023/10/16 09:04:08;;;;;;;9.25;2.03;;;10.60;88.50;;;;;;4931239;28;20713;-77
2023/10/16 09:06:37;;;;;;;2.33;1.10;;;10.50;88.50;;;;;;4926314;28;20042;-77
2023/10/16 09:09:16;;;;;;;7.35;1.92;;;10.50;89.40;;;;;;4966996;28;20061;-78
2023/10/16 09:11:50;;;;;;;1.50;0.40;;;10.60;89.10;;;;;;4935438;28;20100;-78
2023/10/16 09:14:17;;;;;;;4.78;1.00;;;10.70;88.50;;;;;;4922536;28;20558;-78
2023/10/16 09:16:47;;;;;;;2.22;0.50;;;10.90;87.80;;;;;;4933350;28;20046;-77
2023/10/16 09:19:15;;;;;;;3.05;0.40;;;10.90;86.90;;;;;;4960024;28;20042;-77
2023/10/16 09:21:43;;;;;;;2.13;0.80;;;10.90;87.10;;;;;;4966336;28;20541;-78
2023/10/16 09:24:14;;;;;;;1.65;0.50;;;11.00;87.70;;;;;;4921692;28;20051;-77
2023/10/16 09:26:45;;;;;;;1.58;0.20;;;10.90;87.20;;;;;;4940910;28;20054;-77
2023/10/16 09:29:15;;;;;;;2.00;0.32;;;10.70;87.70;;;;;;4941134;28;20096;-78
2023/10/16 09:31:47;;;;;;;5.38;0.50;;;10.60;88.10;;;;;;4929041;28;20537;-77
2023/10/16 09:34:20;;;;;;;2.55;0.40;;;10.80;87.90;;;;;;4941071;28;22238;-76
2023/10/16 09:39:46;;;;;;;2.92;0.47;;;11.00;86.50;;;;;;4978926;28;20054;-80
2023/10/16 09:42:14;;;;;;;2.25;0.30;;;10.80;85.70;;;;;;4953291;28;20042;-77
2023/10/16 09:44:56;;;;;;;2.17;0.30;;;11.00;86.50;;;;;;4929673;28;20046;-77
2023/10/16 09:47:27;;;;;;;2.43;0.40;;;11.00;85.40;;;;;;4922252;28;20059;-78
2023/10/16 09:49:59;;;;;;;2.88;0.40;;;11.20;86.60;;;;;;4929504;28;20404;-77
2023/10/16 09:52:33;;;;;;;2.50;0.50;;;11.30;85.50;;;;;;4969114;28;20062;-77
2023/10/16 09:55:00;;;;;;;1.67;0.40;;;11.30;85.60;;;;;;4940753;28;20059;-78
2023/10/16 09:57:30;;;;;;;2.15;0.38;;;11.30;84.40;;;;;;4943974;28;20077;-77
2023/10/16 10:02:51;;;;;;;1.65;0.20;;;11.50;84.90;;;;;;4939844;28;20070;-78
2023/10/16 10:05:22;;;;;;;1.80;0.30;;;11.60;84.50;;;;;;4943888;28;20197;-77
2023/10/16 10:07:58;;;;;;;3.58;0.50;;;11.60;82.50;;;;;;4943071;28;20051;-75
2023/10/16 10:13:15;;;;;;;2.60;0.60;;;11.50;85.40;;;;;;4941065;28;20060;-76
2023/10/16 10:15:49;;;;;;;1.50;0.50;;;11.80;87.10;;;;;;4938535;28;20077;-77
2023/10/16 10:21:30;;;;;;;3.20;0.52;;;11.70;85.80;;;;;;4867413;29;20056;-77
2023/10/16 10:24:03;;;;;;;2.25;0.30;;;11.70;85.40;;;;;;4948754;28;20111;-76
2023/10/16 10:26:33;;;;;;;3.15;0.50;;;11.70;85.30;;;;;;4945892;28;20053;-78
2023/10/16 10:29:09;;;;;;;1.65;0.30;;;11.70;84.00;;;;;;4952303;28;20046;-78
2023/10/16 10:31:40;;;;;;;4.25;0.95;;;11.90;84.50;;;;;;4967833;28;20050;-77
2023/10/16 10:34:24;;;;;;;10.52;4.38;;;11.90;85.00;;;;;;4966237;28;20143;-78
2023/10/16 10:36:51;;;;;;;3.22;1.30;;;12.00;84.50;;;;;;4934695;28;20062;-77
2023/10/16 10:39:22;;;;;;;3.30;1.02;;;12.10;84.50;;;;;;4940359;28;20124;-76
2023/10/16 10:42:03;;;;;;;3.28;0.40;;;12.00;83.50;;;;;;4956531;28;20453;-77
2023/10/16 10:44:43;;;;;;;6.65;3.00;;;12.00;84.50;;;;;;4934808;28;22064;-77
2023/10/16 10:47:32;;;;;;;2.20;0.38;;;12.00;83.10;;;;;;4938547;28;20046;-77
2023/10/16 10:50:00;;;;;;;2.22;0.68;;;12.00;81.30;;;;;;4951929;28;20043;-76
2023/10/16 10:52:32;;;;;;;2.35;0.25;;;11.90;81.60;;;;;;4944829;28;20054;-77
2023/10/16 10:55:10;;;;;;;19.40;3.63;;;12.00;82.90;;;;;;4930755;28;20047;-77
2023/10/16 10:57:38;;;;;;;2.42;0.85;;;12.10;81.90;;;;;;4956747;28;20049;-77
2023/10/16 11:00:50;;;;;;;5.75;1.95;;;12.10;81.10;;;;;;4936123;28;20829;-77
2023/10/16 11:05:33;;;;;;;1.13;0.30;;;12.10;80.30;;;;;;4936359;28;20069;-78
2023/10/16 11:10:44;;;;;;;2.53;0.60;;;12.00;79.80;;;;;;4944275;28;20050;-77
2023/10/16 11:13:14;;;;;;;1.20;0.30;;;12.10;79.50;;;;;;4943500;28;20434;-77
2023/10/16 11:15:52;;;;;;;2.20;0.47;;;12.30;80.60;;;;;;4938421;28;20057;-77
2023/10/16 11:18:26;;;;;;;2.95;0.40;;;12.30;81.30;;;;;;4964030;28;20092;-74
2023/10/16 11:20:54;;;;;;;1.35;0.25;;;12.50;78.60;;;;;;4954543;28;20042;-78
2023/10/16 11:23:31;;;;;;;2.15;0.40;;;12.20;78.60;;;;;;4931861;28;20055;-78
2023/10/16 11:25:59;;;;;;;2.40;0.30;;;12.20;79.60;;;;;;4962769;28;20050;-78
2023/10/16 11:28:28;;;;;;;3.40;0.22;;;12.20;78.20;;;;;;4921881;28;20848;-78
2023/10/16 11:30:57;;;;;;;2.22;0.30;;;12.30;78.20;;;;;;4944780;28;20061;-76
2023/10/16 11:33:43;;;;;;;9.13;0.93;;;11.70;77.30;;;;;;4955042;28;20680;-77
2023/10/16 11:36:13;;;;;;;2.92;0.55;;;12.40;76.10;;;;;;4949625;28;20046;-77
2023/10/16 11:38:43;;;;;;;1.98;0.68;;;12.40;77.00;;;;;;4954499;28;20065;-77
2023/10/16 11:41:17;;;;;;;0.90;0.38;;;12.50;76.70;;;;;;4950117;28;20510;-77
2023/10/16 11:43:47;;;;;;;2.08;0.30;;;12.50;77.60;;;;;;4936555;28;20101;-77
2023/10/16 11:46:52;;;;;;;0.50;0.20;;;12.50;75.90;;;;;;4936408;28;20630;-77
2023/10/16 11:51:53;;;;;;;0.73;0.20;;;12.50;76.00;;;;;;4934549;28;20054;-78
2023/10/16 11:54:23;;;;;;;2.22;1.17;;;12.50;75.60;;;;;;4936241;28;20081;-77
2023/10/16 11:56:56;;;;;;;3.08;0.40;;;12.50;75.10;;;;;;4924702;28;20651;-77
2023/10/16 11:59:27;;;;;;;1.15;0.30;;;12.50;75.40;;;;;;4966292;28;20181;-77
2023/10/16 12:02:11;;;;;;;1.05;0.30;;;12.50;74.00;;;;;;4939505;28;20042;-77
2023/10/16 12:04:42;;;;;;;1.20;0.20;;;12.50;74.40;;;;;;4963912;28;20083;-77
2023/10/16 12:07:16;;;;;;;0.52;0.35;;;12.50;74.80;;;;;;4935347;28;20038;-77
2023/10/16 12:09:51;;;;;;;3.10;0.30;;;12.50;75.90;;;;;;4954968;28;20898;-80
2023/10/16 12:12:24;;;;;;;0.85;0.30;;;12.50;77.00;;;;;;4935856;28;20042;-79
2023/10/16 12:14:53;;;;;;;0.90;0.35;;;12.50;75.60;;;;;;4933676;28;20064;-79
2023/10/16 12:17:20;;;;;;;2.58;0.38;;;12.50;75.00;;;;;;4933350;28;20907;-77
2023/10/16 12:19:48;;;;;;;2.33;0.50;;;12.50;75.50;;;;;;4957912;28;20038;-77
2023/10/16 12:22:15;;;;;;;2.17;0.30;;;12.50;74.70;;;;;;4935933;28;20053;-77
2023/10/16 12:24:43;;;;;;;5.78;0.80;;;12.50;75.00;;;;;;4947068;28;20456;-78
2023/10/16 12:27:15;;;;;;;5.53;2.75;;;12.50;74.60;;;;;;4966793;28;20042;-78
2023/10/16 12:29:44;;;;;;;3.78;2.00;;;12.50;75.20;;;;;;4938449;28;22188;-79
2023/10/16 12:32:12;;;;;;;2.08;0.30;;;12.60;75.50;;;;;;4917734;28;20425;-80
2023/10/16 12:34:41;;;;;;;1.70;0.30;;;12.50;74.70;;;;;;4937021;28;20141;-79
2023/10/16 12:37:09;;;;;;;3.15;0.30;;;12.40;75.50;;;;;;4932204;28;20054;-80
2023/10/16 12:39:45;;;;;;;1.98;0.40;;;12.40;76.00;;;;;;4924041;28;20046;-78
2023/10/16 12:42:15;;;;;;;1.30;0.20;;;12.50;76.00;;;;;;4952298;28;20496;-79
2023/10/16 12:44:43;;;;;;;1.65;0.30;;;12.40;76.70;;;;;;4943618;28;20057;-80
2023/10/16 12:47:13;;;;;;;2.95;0.40;;;12.40;76.10;;;;;;4920073;28;22270;-78
2023/10/16 12:50:04;;;;;;;1.48;0.30;;;12.50;76.30;;;;;;4934078;28;20734;-81
2023/10/16 12:52:32;;;;;;;2.58;0.30;;;12.60;76.30;;;;;;4942033;28;20061;-80
2023/10/16 12:55:01;;;;;;;1.42;0.30;;;12.60;76.60;;;;;;4926041;28;20069;-80
2023/10/16 12:57:28;;;;;;;0.30;0.10;;;12.70;75.00;;;;;;4938051;28;20058;-78
2023/10/16 12:59:56;;;;;;;1.10;0.30;;;12.60;75.00;;;;;;4935901;28;22164;-79
2023/10/16 13:02:26;;;;;;;1.45;0.20;;;12.60;75.60;;;;;;4958539;28;20151;-80
2023/10/16 13:04:55;;;;;;;2.20;0.47;;;12.50;74.60;;;;;;4937909;28;20185;-80
2023/10/16 13:07:24;;;;;;;2.70;0.10;;;12.60;75.60;;;;;;4935396;28;20100;-79
2023/10/16 13:10:16;;;;;;;1.42;0.30;;;12.60;75.80;;;;;;4939413;28;20069;-80
2023/10/16 13:12:44;;;;;;;1.58;0.45;;;12.70;75.40;;;;;;4937580;28;20050;-80
2023/10/16 13:15:16;;;;;;;3.58;0.40;;;12.60;75.10;;;;;;4945816;28;20046;-80
2023/10/16 13:17:48;;;;;;;3.72;0.50;;;12.60;74.70;;;;;;4970591;28;20054;-80
2023/10/16 13:20:19;;;;;;;1.25;0.30;;;12.60;77.40;;;;;;4937721;28;20066;-79
2023/10/16 13:22:52;;;;;;;2.80;0.20;;;12.60;75.50;;;;;;4933379;28;22075;-78
2023/10/16 13:25:25;;;;;;;0.47;0.20;;;12.50;75.70;;;;;;4927398;28;20050;-78
2023/10/16 13:27:53;;;;;;;2.75;0.30;;;12.60;76.30;;;;;;4938123;28;20053;-77
2023/10/16 13:30:22;;;;;;;1.08;0.20;;;12.60;74.60;;;;;;4942037;28;20722;-79
2023/10/16 13:32:50;;;;;;;3.75;0.30;;;12.50;74.50;;;;;;4966261;28;20046;-77
2023/10/16 13:35:20;;;;;;;1.27;0.30;;;12.50;74.20;;;;;;4946329;28;20761;-78
2023/10/16 13:37:50;;;;;;;2.42;0.43;;;12.50;75.30;;;;;;4947631;28;20047;-78
2023/10/16 13:40:21;;;;;;;2.83;0.20;;;12.50;74.40;;;;;;4943978;28;20584;-79
2023/10/16 13:42:54;;;;;;;4.40;0.20;;;12.50;74.50;;;;;;4951201;28;20054;-77
2023/10/16 13:45:22;;;;;;;;;;;12.50;74.90;;;;;;4944102;28;21864;-78
2023/10/16 13:47:50;;;;;;;3.03;0.50;;;12.50;74.10;;;;;;4934467;28;20799;-78
2023/10/16 13:50:25;;;;;;;2.78;0.32;;;12.40;74.30;;;;;;4958904;28;20101;-77
2023/10/16 13:52:53;;;;;;;4.15;0.75;;;12.30;75.90;;;;;;4963180;28;20064;-77
2023/10/16 13:55:22;;;;;;;2.45;0.90;;;12.40;74.50;;;;;;4959930;28;20054;-78
2023/10/16 13:57:51;;;;;;;2.58;0.30;;;12.50;74.10;;;;;;4962147;28;20061;-80
2023/10/16 14:00:28;;;;;;;0.80;0.30;;;12.50;73.20;;;;;;4927163;28;20050;-79
2023/10/16 14:03:18;;;;;;;1.70;0.70;;;12.50;74.20;;;;;;4929197;28;22718;-80
2023/10/16 14:05:47;;;;;;;2.25;0.30;;;12.40;73.00;;;;;;4940362;28;20073;-79
2023/10/16 14:08:15;;;;;;;1.08;0.30;;;12.40;73.20;;;;;;4936335;28;20061;-78
2023/10/16 14:10:52;;;;;;;2.08;0.30;;;12.40;73.20;;;;;;4941510;28;20053;-77
2023/10/16 14:13:21;;;;;;;1.08;0.30;;;12.50;73.80;;;;;;4952217;28;20047;-77
2023/10/16 14:15:52;;;;;;;4.85;0.52;;;12.40;72.80;;;;;;4936165;28;20362;-78
2023/10/16 14:18:24;;;;;;;2.00;0.20;;;12.30;73.40;;;;;;4919797;28;20058;-79
2023/10/16 14:20:53;;;;;;;1.08;0.17;;;12.30;73.40;;;;;;4924518;28;23488;-78
2023/10/16 14:23:28;;;;;;;1.80;0.10;;;12.20;74.00;;;;;;4928696;28;20046;-78
2023/10/16 14:25:59;;;;;;;1.65;0.28;;;12.20;73.80;;;;;;4935126;28;20039;-77
2023/10/16 14:30:57;;;;;;;0.73;0.15;;;12.30;71.40;;;;;;4983908;28;20064;-78
2023/10/16 14:33:30;;;;;;;1.33;0.20;;;12.30;70.80;;;;;;4939110;28;20046;-78
2023/10/16 14:35:58;;;;;;;2.78;0.40;;;12.30;71.60;;;;;;4935080;28;20184;-77
2023/10/16 14:38:27;;;;;;;0.50;0.10;;;12.20;71.00;;;;;;4945640;28;20045;-77
2023/10/16 14:41:06;;;;;;;1.35;0.28;;;12.20;70.80;;;;;;4939414;28;20747;-78
2023/10/16 14:43:38;;;;;;;1.90;0.28;;;12.10;71.60;;;;;;4941185;28;20840;-77
2023/10/16 14:46:12;;;;;;;0.60;0.20;;;12.20;71.60;;;;;;4936747;28;20045;-77
2023/10/16 14:48:43;;;;;;;2.08;0.20;;;12.10;72.10;;;;;;4949587;28;20104;-77
2023/10/16 14:51:15;;;;;;;1.40;0.40;;;12.10;72.10;;;;;;4937718;28;20874;-77
2023/10/16 14:53:44;;;;;;;1.38;0.38;;;12.10;72.30;;;;;;4937593;28;20309;-78
2023/10/16 14:56:18;;;;;;;3.88;0.80;;;12.00;71.70;;;;;;4941443;28;20112;-77
2023/10/16 14:58:55;;;;;;;2.00;0.40;;;12.00;73.00;;;;;;4940014;28;20232;-78
2023/10/16 15:01:27;;;;;;;1.73;0.32;;;12.00;72.70;;;;;;4941381;28;22163;-77
2023/10/16 15:03:56;;;;;;;1.85;0.20;;;11.90;71.60;;;;;;4941207;28;20104;-77
2023/10/16 15:06:24;;;;;;;1.90;0.20;;;11.90;71.40;;;;;;4932486;28;20086;-77
2023/10/16 15:08:53;;;;;;;2.72;0.47;;;11.90;71.70;;;;;;4943152;28;20181;-77
2023/10/16 15:11:21;;;;;;;0.95;0.30;;;11.80;73.10;;;;;;4952049;28;20136;-77
2023/10/16 15:13:48;;;;;;;1.30;0.20;;;11.80;72.90;;;;;;4951274;28;20055;-78
2023/10/16 15:16:16;;;;;;;1.58;0.10;;;11.80;72.00;;;;;;4907408;28;20802;-78
2023/10/16 15:18:43;;;;;;;2.60;1.02;;;11.70;72.70;;;;;;4940971;28;20054;-80
2023/10/16 15:21:11;;;;;;;4.30;1.73;;;11.70;73.50;;;;;;4962495;22;20027;-91
2023/10/16 15:23:38;;;;;;;3.13;1.25;;;11.60;75.10;;;;;;4988460;28;20529;-89